sensor_id;sensor_type;location;lat;lon;timestamp;P1;durP1;ratioP1;P2;durP2;ratioP2
1775;SDS011;885;42.626;23.200;2023-05-07T00:01:59;4.50;;;4.10;;
1775;SDS011;885;42.626;23.200;2023-05-07T00:04:25;13.93;;;8.27;;
1775;SDS011;885;42.626;23.200;2023-05-07T00:06:53;4.90;;;4.23;;
1775;SDS011;885;42.626;23.200;2023-05-07T00:09:20;5.07;;;4.20;;
1775;SDS011;885;42.626;23.200;2023-05-07T00:11:47;5.40;;;4.67;;
1775;SDS011;885;42.626;23.200;2023-05-07T00:14:13;5.03;;;4.10;;
1775;SDS011;885;42.626;23.200;2023-05-07T00:16:41;4.20;;;3.73;;
1775;SDS011;885;42.626;23.200;2023-05-07T00:19:08;5.13;;;4.27;;
1775;SDS011;885;42.626;23.200;2023-05-07T00:21:35;6.70;;;4.20;;
1775;SDS011;885;42.626;23.200;2023-05-07T00:24:02;4.80;;;3.80;;
1775;SDS011;885;42.626;23.200;2023-05-07T00:26:29;4.50;;;4.10;;
1775;SDS011;885;42.626;23.200;2023-05-07T00:28:55;5.10;;;4.70;;
1775;SDS011;885;42.626;23.200;2023-05-07T00:31:22;7.80;;;6.50;;
1775;SDS011;885;42.626;23.200;2023-05-07T00:33:50;4.60;;;4.20;;
1775;SDS011;885;42.626;23.200;2023-05-07T00:36:17;5.97;;;4.90;;
1775;SDS011;885;42.626;23.200;2023-05-07T00:38:44;5.00;;;4.30;;
1775;SDS011;885;42.626;23.200;2023-05-07T00:41:10;4.80;;;4.37;;
1775;SDS011;885;42.626;23.200;2023-05-07T00:43:37;4.60;;;3.60;;
1775;SDS011;885;42.626;23.200;2023-05-07T00:46:04;6.27;;;4.77;;
1775;SDS011;885;42.626;23.200;2023-05-07T00:48:31;4.80;;;4.20;;
1775;SDS011;885;42.626;23.200;2023-05-07T00:50:59;7.30;;;4.60;;
1775;SDS011;885;42.626;23.200;2023-05-07T00:53:26;4.87;;;4.30;;
1775;SDS011;885;42.626;23.200;2023-05-07T00:55:53;6.23;;;5.00;;
1775;SDS011;885;42.626;23.200;2023-05-07T00:58:21;5.33;;;4.07;;
1775;SDS011;885;42.626;23.200;2023-05-07T01:00:48;4.97;;;4.57;;
1775;SDS011;885;42.626;23.200;2023-05-07T01:03:15;5.40;;;4.50;;
1775;SDS011;885;42.626;23.200;2023-05-07T01:05:42;7.70;;;4.93;;
1775;SDS011;885;42.626;23.200;2023-05-07T01:08:11;5.10;;;4.70;;
1775;SDS011;885;42.626;23.200;2023-05-07T01:10:40;5.43;;;4.93;;
1775;SDS011;885;42.626;23.200;2023-05-07T01:13:08;5.60;;;5.07;;
1775;SDS011;885;42.626;23.200;2023-05-07T01:15:36;10.00;;;9.00;;
1775;SDS011;885;42.626;23.200;2023-05-07T01:18:03;11.57;;;8.40;;
1775;SDS011;885;42.626;23.200;2023-05-07T01:20:31;8.07;;;4.70;;
1775;SDS011;885;42.626;23.200;2023-05-07T01:23:00;4.53;;;4.17;;
1775;SDS011;885;42.626;23.200;2023-05-07T01:25:28;5.33;;;4.30;;
1775;SDS011;885;42.626;23.200;2023-05-07T01:27:55;5.07;;;4.57;;
1775;SDS011;885;42.626;23.200;2023-05-07T01:30:24;4.83;;;4.37;;
1775;SDS011;885;42.626;23.200;2023-05-07T01:32:52;4.67;;;4.27;;
1775;SDS011;885;42.626;23.200;2023-05-07T01:35:24;6.00;;;5.50;;
1775;SDS011;885;42.626;23.200;2023-05-07T01:37:53;4.67;;;4.27;;
1775;SDS011;885;42.626;23.200;2023-05-07T01:40:22;8.17;;;6.23;;
1775;SDS011;885;42.626;23.200;2023-05-07T01:42:50;21.23;;;13.90;;
1775;SDS011;885;42.626;23.200;2023-05-07T01:45:18;9.67;;;7.50;;
1775;SDS011;885;42.626;23.200;2023-05-07T01:47:45;7.97;;;6.80;;
1775;SDS011;885;42.626;23.200;2023-05-07T01:50:12;8.87;;;7.40;;
1775;SDS011;885;42.626;23.200;2023-05-07T01:52:42;15.13;;;10.47;;
1775;SDS011;885;42.626;23.200;2023-05-07T01:55:09;15.40;;;11.57;;
1775;SDS011;885;42.626;23.200;2023-05-07T01:57:37;25.07;;;18.57;;
1775;SDS011;885;42.626;23.200;2023-05-07T02:00:04;11.63;;;9.17;;
1775;SDS011;885;42.626;23.200;2023-05-07T02:02:33;19.50;;;14.90;;
1775;SDS011;885;42.626;23.200;2023-05-07T02:05:00;10.83;;;8.13;;
1775;SDS011;885;42.626;23.200;2023-05-07T02:07:27;6.87;;;5.37;;
1775;SDS011;885;42.626;23.200;2023-05-07T02:09:54;5.30;;;4.80;;
1775;SDS011;885;42.626;23.200;2023-05-07T02:12:21;5.30;;;4.80;;
1775;SDS011;885;42.626;23.200;2023-05-07T02:14:49;8.70;;;5.73;;
1775;SDS011;885;42.626;23.200;2023-05-07T02:17:16;8.30;;;7.40;;
1775;SDS011;885;42.626;23.200;2023-05-07T02:19:43;9.70;;;8.53;;
1775;SDS011;885;42.626;23.200;2023-05-07T02:22:09;36.43;;;25.30;;
1775;SDS011;885;42.626;23.200;2023-05-07T02:24:36;18.40;;;12.73;;
1775;SDS011;885;42.626;23.200;2023-05-07T02:27:03;21.40;;;12.37;;
1775;SDS011;885;42.626;23.200;2023-05-07T02:29:30;20.37;;;14.67;;
1775;SDS011;885;42.626;23.200;2023-05-07T02:31:58;13.50;;;9.90;;
1775;SDS011;885;42.626;23.200;2023-05-07T02:34:25;7.63;;;6.93;;
1775;SDS011;885;42.626;23.200;2023-05-07T02:36:51;11.30;;;8.40;;
1775;SDS011;885;42.626;23.200;2023-05-07T02:39:18;13.23;;;10.57;;
1775;SDS011;885;42.626;23.200;2023-05-07T02:41:45;38.67;;;21.13;;
1775;SDS011;885;42.626;23.200;2023-05-07T02:44:11;14.50;;;10.70;;
1775;SDS011;885;42.626;23.200;2023-05-07T02:46:38;8.07;;;6.90;;
1775;SDS011;885;42.626;23.200;2023-05-07T02:49:06;15.67;;;10.00;;
1775;SDS011;885;42.626;23.200;2023-05-07T02:51:33;10.07;;;7.60;;
1775;SDS011;885;42.626;23.200;2023-05-07T02:54:00;14.10;;;9.83;;
1775;SDS011;885;42.626;23.200;2023-05-07T02:56:27;13.00;;;10.00;;
1775;SDS011;885;42.626;23.200;2023-05-07T02:58:53;7.50;;;6.10;;
1775;SDS011;885;42.626;23.200;2023-05-07T03:01:20;5.60;;;5.00;;
1775;SDS011;885;42.626;23.200;2023-05-07T03:03:47;10.37;;;6.73;;
1775;SDS011;885;42.626;23.200;2023-05-07T03:06:15;13.77;;;9.90;;
1775;SDS011;885;42.626;23.200;2023-05-07T03:08:42;12.10;;;10.43;;
1775;SDS011;885;42.626;23.200;2023-05-07T03:11:09;7.67;;;6.87;;
1775;SDS011;885;42.626;23.200;2023-05-07T03:13:35;7.27;;;6.03;;
1775;SDS011;885;42.626;23.200;2023-05-07T03:16:02;11.40;;;9.27;;
1775;SDS011;885;42.626;23.200;2023-05-07T03:18:29;12.20;;;10.03;;
1775;SDS011;885;42.626;23.200;2023-05-07T03:20:56;9.20;;;7.50;;
1775;SDS011;885;42.626;23.200;2023-05-07T03:23:24;10.50;;;8.00;;
1775;SDS011;885;42.626;23.200;2023-05-07T03:25:51;9.07;;;8.17;;
1775;SDS011;885;42.626;23.200;2023-05-07T03:28:17;10.30;;;9.07;;
1775;SDS011;885;42.626;23.200;2023-05-07T03:30:45;7.03;;;6.33;;
1775;SDS011;885;42.626;23.200;2023-05-07T03:33:11;23.40;;;16.70;;
1775;SDS011;885;42.626;23.200;2023-05-07T03:35:38;51.13;;;33.90;;
1775;SDS011;885;42.626;23.200;2023-05-07T03:38:05;28.53;;;20.03;;
1775;SDS011;885;42.626;23.200;2023-05-07T03:40:33;13.40;;;11.23;;
1775;SDS011;885;42.626;23.200;2023-05-07T03:43:00;8.67;;;6.73;;
1775;SDS011;885;42.626;23.200;2023-05-07T03:45:27;11.47;;;9.03;;
1775;SDS011;885;42.626;23.200;2023-05-07T03:47:53;10.80;;;8.53;;
1775;SDS011;885;42.626;23.200;2023-05-07T03:50:20;9.13;;;6.93;;
1775;SDS011;885;42.626;23.200;2023-05-07T03:52:47;7.50;;;5.70;;
1775;SDS011;885;42.626;23.200;2023-05-07T03:55:14;7.40;;;6.20;;
1775;SDS011;885;42.626;23.200;2023-05-07T03:57:42;7.43;;;6.10;;
1775;SDS011;885;42.626;23.200;2023-05-07T04:00:09;6.43;;;5.83;;
1775;SDS011;885;42.626;23.200;2023-05-07T04:02:36;8.73;;;6.47;;
1775;SDS011;885;42.626;23.200;2023-05-07T04:05:03;10.70;;;6.43;;
1775;SDS011;885;42.626;23.200;2023-05-07T04:07:30;9.73;;;6.80;;
1775;SDS011;885;42.626;23.200;2023-05-07T04:09:57;7.70;;;6.70;;
1775;SDS011;885;42.626;23.200;2023-05-07T04:12:24;5.97;;;5.37;;
1775;SDS011;885;42.626;23.200;2023-05-07T04:14:52;6.20;;;5.20;;
1775;SDS011;885;42.626;23.200;2023-05-07T04:17:18;6.60;;;6.00;;
1775;SDS011;885;42.626;23.200;2023-05-07T04:19:45;6.50;;;5.83;;
1775;SDS011;885;42.626;23.200;2023-05-07T04:22:12;10.10;;;8.77;;
1775;SDS011;885;42.626;23.200;2023-05-07T04:24:39;29.00;;;23.20;;
1775;SDS011;885;42.626;23.200;2023-05-07T04:27:05;8.07;;;7.27;;
1775;SDS011;885;42.626;23.200;2023-05-07T04:29:32;7.07;;;5.70;;
1775;SDS011;885;42.626;23.200;2023-05-07T04:32:00;8.97;;;5.37;;
1775;SDS011;885;42.626;23.200;2023-05-07T04:34:27;9.27;;;5.33;;
1775;SDS011;885;42.626;23.200;2023-05-07T04:36:57;5.93;;;5.43;;
1775;SDS011;885;42.626;23.200;2023-05-07T04:39:25;8.07;;;7.10;;
1775;SDS011;885;42.626;23.200;2023-05-07T04:41:51;26.57;;;17.57;;
1775;SDS011;885;42.626;23.200;2023-05-07T04:44:18;38.67;;;23.50;;
1775;SDS011;885;42.626;23.200;2023-05-07T04:46:45;6.90;;;6.00;;
1775;SDS011;885;42.626;23.200;2023-05-07T04:49:13;6.43;;;5.70;;
1775;SDS011;885;42.626;23.200;2023-05-07T04:51:40;7.03;;;6.33;;
1775;SDS011;885;42.626;23.200;2023-05-07T04:54:07;7.40;;;6.67;;
1775;SDS011;885;42.626;23.200;2023-05-07T04:56:35;15.97;;;11.97;;
1775;SDS011;885;42.626;23.200;2023-05-07T04:59:01;10.63;;;8.47;;
1775;SDS011;885;42.626;23.200;2023-05-07T05:01:28;23.13;;;14.37;;
1775;SDS011;885;42.626;23.200;2023-05-07T05:03:56;27.93;;;16.43;;
1775;SDS011;885;42.626;23.200;2023-05-07T05:06:24;22.80;;;13.90;;
1775;SDS011;885;42.626;23.200;2023-05-07T05:08:51;62.73;;;31.93;;
1775;SDS011;885;42.626;23.200;2023-05-07T05:11:18;97.30;;;48.03;;
1775;SDS011;885;42.626;23.200;2023-05-07T05:13:44;49.53;;;24.97;;
1775;SDS011;885;42.626;23.200;2023-05-07T05:16:13;69.67;;;34.00;;
1775;SDS011;885;42.626;23.200;2023-05-07T05:18:40;94.83;;;48.60;;
1775;SDS011;885;42.626;23.200;2023-05-07T05:21:06;17.50;;;12.90;;
1775;SDS011;885;42.626;23.200;2023-05-07T05:23:35;7.77;;;6.30;;
1775;SDS011;885;42.626;23.200;2023-05-07T05:26:01;9.43;;;6.73;;
1775;SDS011;885;42.626;23.200;2023-05-07T05:28:28;13.77;;;10.00;;
1775;SDS011;885;42.626;23.200;2023-05-07T05:30:55;24.10;;;19.80;;
1775;SDS011;885;42.626;23.200;2023-05-07T05:33:21;19.87;;;17.87;;
1775;SDS011;885;42.626;23.200;2023-05-07T05:35:49;9.10;;;7.80;;
1775;SDS011;885;42.626;23.200;2023-05-07T05:38:15;8.70;;;7.13;;
1775;SDS011;885;42.626;23.200;2023-05-07T05:40:44;6.90;;;6.13;;
1775;SDS011;885;42.626;23.200;2023-05-07T05:43:10;7.00;;;6.37;;
1775;SDS011;885;42.626;23.200;2023-05-07T05:45:37;11.37;;;6.27;;
1775;SDS011;885;42.626;23.200;2023-05-07T05:48:04;27.43;;;16.27;;
1775;SDS011;885;42.626;23.200;2023-05-07T05:50:31;10.03;;;7.33;;
1775;SDS011;885;42.626;23.200;2023-05-07T05:52:58;24.13;;;17.40;;
1775;SDS011;885;42.626;23.200;2023-05-07T05:55:25;10.10;;;7.30;;
1775;SDS011;885;42.626;23.200;2023-05-07T05:57:53;20.40;;;13.43;;
1775;SDS011;885;42.626;23.200;2023-05-07T06:00:20;19.60;;;16.90;;
1775;SDS011;885;42.626;23.200;2023-05-07T06:02:47;7.73;;;6.30;;
1775;SDS011;885;42.626;23.200;2023-05-07T06:05:14;14.27;;;12.77;;
1775;SDS011;885;42.626;23.200;2023-05-07T06:07:41;8.70;;;6.27;;
1775;SDS011;885;42.626;23.200;2023-05-07T06:10:08;9.43;;;6.30;;
1775;SDS011;885;42.626;23.200;2023-05-07T06:12:35;6.70;;;5.60;;
1775;SDS011;885;42.626;23.200;2023-05-07T06:15:03;6.20;;;5.70;;
1775;SDS011;885;42.626;23.200;2023-05-07T06:17:31;7.13;;;5.67;;
1775;SDS011;885;42.626;23.200;2023-05-07T06:19:57;7.10;;;5.83;;
1775;SDS011;885;42.626;23.200;2023-05-07T06:22:24;6.33;;;5.83;;
1775;SDS011;885;42.626;23.200;2023-05-07T06:24:51;8.27;;;5.27;;
1775;SDS011;885;42.626;23.200;2023-05-07T06:27:18;6.40;;;5.80;;
1775;SDS011;885;42.626;23.200;2023-05-07T06:29:44;5.30;;;4.90;;
1775;SDS011;885;42.626;23.200;2023-05-07T06:32:13;8.20;;;6.97;;
1775;SDS011;885;42.626;23.200;2023-05-07T06:34:40;8.33;;;7.47;;
1775;SDS011;885;42.626;23.200;2023-05-07T06:37:07;6.40;;;5.70;;
1775;SDS011;885;42.626;23.200;2023-05-07T06:39:34;5.77;;;5.27;;
1775;SDS011;885;42.626;23.200;2023-05-07T06:42:00;5.87;;;5.07;;
1775;SDS011;885;42.626;23.200;2023-05-07T06:44:29;4.83;;;4.43;;
1775;SDS011;885;42.626;23.200;2023-05-07T06:46:56;6.93;;;5.57;;
1775;SDS011;885;42.626;23.200;2023-05-07T06:49:24;7.53;;;5.03;;
1775;SDS011;885;42.626;23.200;2023-05-07T06:51:51;6.43;;;5.90;;
1775;SDS011;885;42.626;23.200;2023-05-07T06:54:17;7.13;;;6.43;;
1775;SDS011;885;42.626;23.200;2023-05-07T06:56:45;8.97;;;6.30;;
1775;SDS011;885;42.626;23.200;2023-05-07T06:59:12;9.23;;;6.67;;
1775;SDS011;885;42.626;23.200;2023-05-07T07:01:38;6.20;;;5.60;;
1775;SDS011;885;42.626;23.200;2023-05-07T07:04:05;5.80;;;5.20;;
1775;SDS011;885;42.626;23.200;2023-05-07T07:06:33;4.70;;;4.30;;
1775;SDS011;885;42.626;23.200;2023-05-07T07:09:00;7.67;;;4.73;;
1775;SDS011;885;42.626;23.200;2023-05-07T07:11:27;5.50;;;5.00;;
1775;SDS011;885;42.626;23.200;2023-05-07T07:13:53;5.17;;;4.73;;
1775;SDS011;885;42.626;23.200;2023-05-07T07:16:20;5.97;;;5.30;;
1775;SDS011;885;42.626;23.200;2023-05-07T07:18:47;6.03;;;5.43;;
1775;SDS011;885;42.626;23.200;2023-05-07T07:21:14;6.57;;;5.97;;
1775;SDS011;885;42.626;23.200;2023-05-07T07:23:42;5.70;;;5.20;;
1775;SDS011;885;42.626;23.200;2023-05-07T07:26:09;5.97;;;5.47;;
1775;SDS011;885;42.626;23.200;2023-05-07T07:28:41;6.50;;;5.63;;
1775;SDS011;885;42.626;23.200;2023-05-07T07:31:08;6.30;;;5.40;;
1775;SDS011;885;42.626;23.200;2023-05-07T07:33:35;5.23;;;4.73;;
1775;SDS011;885;42.626;23.200;2023-05-07T07:36:02;6.57;;;5.97;;
1775;SDS011;885;42.626;23.200;2023-05-07T07:38:30;6.20;;;5.60;;
1775;SDS011;885;42.626;23.200;2023-05-07T07:40:58;8.13;;;6.00;;
1775;SDS011;885;42.626;23.200;2023-05-07T07:43:26;10.30;;;5.53;;
1775;SDS011;885;42.626;23.200;2023-05-07T07:45:53;5.73;;;5.10;;
1775;SDS011;885;42.626;23.200;2023-05-07T07:48:19;8.30;;;5.90;;
1775;SDS011;885;42.626;23.200;2023-05-07T07:50:48;5.43;;;4.93;;
1775;SDS011;885;42.626;23.200;2023-05-07T07:53:15;7.00;;;4.70;;
1775;SDS011;885;42.626;23.200;2023-05-07T07:55:42;4.37;;;4.00;;
1775;SDS011;885;42.626;23.200;2023-05-07T07:58:10;6.20;;;5.60;;
1775;SDS011;885;42.626;23.200;2023-05-07T08:00:36;6.37;;;5.00;;
1775;SDS011;885;42.626;23.200;2023-05-07T08:03:03;5.43;;;5.00;;
1775;SDS011;885;42.626;23.200;2023-05-07T08:05:31;4.90;;;4.50;;
1775;SDS011;885;42.626;23.200;2023-05-07T08:07:58;5.53;;;5.03;;
1775;SDS011;885;42.626;23.200;2023-05-07T08:10:25;6.43;;;5.00;;
1775;SDS011;885;42.626;23.200;2023-05-07T08:12:52;6.40;;;4.43;;
1775;SDS011;885;42.626;23.200;2023-05-07T08:15:20;5.03;;;4.13;;
1775;SDS011;885;42.626;23.200;2023-05-07T08:17:47;6.13;;;4.30;;
1775;SDS011;885;42.626;23.200;2023-05-07T08:20:13;5.70;;;5.20;;
1775;SDS011;885;42.626;23.200;2023-05-07T08:22:40;7.13;;;4.70;;
1775;SDS011;885;42.626;23.200;2023-05-07T08:25:07;5.57;;;4.97;;
1775;SDS011;885;42.626;23.200;2023-05-07T08:27:35;5.83;;;5.33;;
1775;SDS011;885;42.626;23.200;2023-05-07T08:30:02;5.00;;;4.60;;
1775;SDS011;885;42.626;23.200;2023-05-07T08:32:30;6.03;;;5.50;;
1775;SDS011;885;42.626;23.200;2023-05-07T08:34:57;6.00;;;5.50;;
1775;SDS011;885;42.626;23.200;2023-05-07T08:37:24;6.43;;;5.67;;
1775;SDS011;885;42.626;23.200;2023-05-07T08:39:50;8.13;;;4.70;;
1775;SDS011;885;42.626;23.200;2023-05-07T08:42:17;7.37;;;4.53;;
1775;SDS011;885;42.626;23.200;2023-05-07T08:44:46;5.40;;;4.87;;
1775;SDS011;885;42.626;23.200;2023-05-07T08:47:18;6.60;;;6.00;;
1775;SDS011;885;42.626;23.200;2023-05-07T08:49:47;5.83;;;5.33;;
1775;SDS011;885;42.626;23.200;2023-05-07T08:52:14;8.63;;;6.90;;
1775;SDS011;885;42.626;23.200;2023-05-07T08:54:41;5.70;;;5.20;;
1775;SDS011;885;42.626;23.200;2023-05-07T08:57:09;6.40;;;5.90;;
1775;SDS011;885;42.626;23.200;2023-05-07T08:59:36;7.80;;;6.50;;
1775;SDS011;885;42.626;23.200;2023-05-07T09:02:02;7.80;;;7.03;;
1775;SDS011;885;42.626;23.200;2023-05-07T09:04:30;6.20;;;5.63;;
1775;SDS011;885;42.626;23.200;2023-05-07T09:06:59;7.50;;;6.70;;
1775;SDS011;885;42.626;23.200;2023-05-07T09:09:31;7.93;;;6.10;;
1775;SDS011;885;42.626;23.200;2023-05-07T09:11:58;7.37;;;5.40;;
1775;SDS011;885;42.626;23.200;2023-05-07T09:14:27;6.30;;;5.73;;
1775;SDS011;885;42.626;23.200;2023-05-07T09:16:53;7.43;;;6.67;;
1775;SDS011;885;42.626;23.200;2023-05-07T09:19:22;9.23;;;5.43;;
1775;SDS011;885;42.626;23.200;2023-05-07T09:21:49;9.03;;;6.17;;
1775;SDS011;885;42.626;23.200;2023-05-07T09:24:17;7.20;;;5.90;;
1775;SDS011;885;42.626;23.200;2023-05-07T09:26:44;6.50;;;5.90;;
1775;SDS011;885;42.626;23.200;2023-05-07T09:29:11;7.07;;;5.70;;
1775;SDS011;885;42.626;23.200;2023-05-07T09:31:37;12.77;;;5.87;;
1775;SDS011;885;42.626;23.200;2023-05-07T09:34:04;7.43;;;6.73;;
1775;SDS011;885;42.626;23.200;2023-05-07T09:36:31;6.27;;;5.67;;
1775;SDS011;885;42.626;23.200;2023-05-07T09:38:59;6.40;;;5.80;;
1775;SDS011;885;42.626;23.200;2023-05-07T09:41:27;9.73;;;7.17;;
1775;SDS011;885;42.626;23.200;2023-05-07T09:43:56;7.73;;;6.40;;
1775;SDS011;885;42.626;23.200;2023-05-07T09:46:26;7.13;;;6.40;;
1775;SDS011;885;42.626;23.200;2023-05-07T09:48:56;5.60;;;5.10;;
1775;SDS011;885;42.626;23.200;2023-05-07T09:51:24;6.70;;;6.07;;
1775;SDS011;885;42.626;23.200;2023-05-07T09:53:56;6.57;;;5.70;;
1775;SDS011;885;42.626;23.200;2023-05-07T09:56:25;8.20;;;7.40;;
1775;SDS011;885;42.626;23.200;2023-05-07T09:58:53;7.03;;;5.77;;
1775;SDS011;885;42.626;23.200;2023-05-07T10:01:22;6.70;;;6.10;;
1775;SDS011;885;42.626;23.200;2023-05-07T10:03:50;8.27;;;6.13;;
1775;SDS011;885;42.626;23.200;2023-05-07T10:06:18;8.03;;;7.23;;
1775;SDS011;885;42.626;23.200;2023-05-07T10:08:46;6.30;;;5.70;;
1775;SDS011;885;42.626;23.200;2023-05-07T10:11:14;13.37;;;5.63;;
1775;SDS011;885;42.626;23.200;2023-05-07T10:13:43;5.90;;;5.30;;
1775;SDS011;885;42.626;23.200;2023-05-07T10:16:12;8.93;;;5.80;;
1775;SDS011;885;42.626;23.200;2023-05-07T10:18:40;5.60;;;5.00;;
1775;SDS011;885;42.626;23.200;2023-05-07T10:21:07;8.03;;;5.27;;
1775;SDS011;885;42.626;23.200;2023-05-07T10:23:37;5.97;;;5.43;;
1775;SDS011;885;42.626;23.200;2023-05-07T10:26:06;6.40;;;4.90;;
1775;SDS011;885;42.626;23.200;2023-05-07T10:28:35;8.27;;;5.80;;
1775;SDS011;885;42.626;23.200;2023-05-07T10:31:10;4.70;;;4.20;;
1775;SDS011;885;42.626;23.200;2023-05-07T10:33:50;6.43;;;5.10;;
1775;SDS011;885;42.626;23.200;2023-05-07T10:36:19;7.20;;;5.40;;
1775;SDS011;885;42.626;23.200;2023-05-07T10:38:47;7.13;;;5.50;;
1775;SDS011;885;42.626;23.200;2023-05-07T10:41:16;5.43;;;4.90;;
1775;SDS011;885;42.626;23.200;2023-05-07T10:43:44;8.10;;;5.20;;
1775;SDS011;885;42.626;23.200;2023-05-07T10:46:14;7.00;;;5.13;;
1775;SDS011;885;42.626;23.200;2023-05-07T10:51:42;6.97;;;6.37;;
1775;SDS011;885;42.626;23.200;2023-05-07T10:54:18;9.50;;;7.60;;
1775;SDS011;885;42.626;23.200;2023-05-07T10:56:45;7.50;;;6.20;;
1775;SDS011;885;42.626;23.200;2023-05-07T11:02:01;12.27;;;6.77;;
1775;SDS011;885;42.626;23.200;2023-05-07T11:04:31;5.53;;;5.07;;
1775;SDS011;885;42.626;23.200;2023-05-07T11:07:21;6.00;;;5.43;;
1775;SDS011;885;42.626;23.200;2023-05-07T11:09:58;6.70;;;6.00;;
1775;SDS011;885;42.626;23.200;2023-05-07T11:15:32;11.37;;;5.93;;
1775;SDS011;885;42.626;23.200;2023-05-07T11:18:10;11.23;;;7.17;;
1775;SDS011;885;42.626;23.200;2023-05-07T11:20:47;7.23;;;4.90;;
1775;SDS011;885;42.626;23.200;2023-05-07T11:26:22;6.60;;;5.93;;
1775;SDS011;885;42.626;23.200;2023-05-07T11:28:50;10.90;;;5.90;;
1775;SDS011;885;42.626;23.200;2023-05-07T11:31:20;11.03;;;6.40;;
1775;SDS011;885;42.626;23.200;2023-05-07T11:33:50;6.17;;;5.57;;
1775;SDS011;885;42.626;23.200;2023-05-07T11:36:17;5.87;;;5.30;;
1775;SDS011;885;42.626;23.200;2023-05-07T11:38:46;8.30;;;6.10;;
1775;SDS011;885;42.626;23.200;2023-05-07T11:41:13;6.70;;;5.40;;
1775;SDS011;885;42.626;23.200;2023-05-07T11:43:53;8.30;;;5.10;;
1775;SDS011;885;42.626;23.200;2023-05-07T11:46:21;26.80;;;7.37;;
1775;SDS011;885;42.626;23.200;2023-05-07T11:48:47;5.17;;;3.87;;
1775;SDS011;885;42.626;23.200;2023-05-07T11:51:18;4.87;;;4.37;;
1775;SDS011;885;42.626;23.200;2023-05-07T11:53:46;5.30;;;4.80;;
1775;SDS011;885;42.626;23.200;2023-05-07T11:56:13;5.30;;;4.77;;
1775;SDS011;885;42.626;23.200;2023-05-07T11:58:41;5.73;;;4.90;;
1775;SDS011;885;42.626;23.200;2023-05-07T12:01:09;12.13;;;5.33;;
1775;SDS011;885;42.626;23.200;2023-05-07T12:03:37;6.43;;;4.60;;
1775;SDS011;885;42.626;23.200;2023-05-07T12:06:08;4.70;;;4.30;;
1775;SDS011;885;42.626;23.200;2023-05-07T12:08:36;5.33;;;4.83;;
1775;SDS011;885;42.626;23.200;2023-05-07T12:11:04;4.50;;;4.07;;
1775;SDS011;885;42.626;23.200;2023-05-07T12:13:33;4.50;;;4.10;;
1775;SDS011;885;42.626;23.200;2023-05-07T12:16:00;3.90;;;3.60;;
1775;SDS011;885;42.626;23.200;2023-05-07T12:18:29;6.43;;;3.97;;
1775;SDS011;885;42.626;23.200;2023-05-07T12:20:56;5.53;;;4.23;;
1775;SDS011;885;42.626;23.200;2023-05-07T12:23:25;4.77;;;4.03;;
1775;SDS011;885;42.626;23.200;2023-05-07T12:25:52;4.37;;;4.07;;
1775;SDS011;885;42.626;23.200;2023-05-07T12:28:20;3.90;;;3.60;;
1775;SDS011;885;42.626;23.200;2023-05-07T12:30:47;7.03;;;3.43;;
1775;SDS011;885;42.626;23.200;2023-05-07T12:33:16;3.90;;;3.60;;
1775;SDS011;885;42.626;23.200;2023-05-07T12:35:43;7.80;;;4.60;;
1775;SDS011;885;42.626;23.200;2023-05-07T12:38:10;7.07;;;4.40;;
1775;SDS011;885;42.626;23.200;2023-05-07T12:40:40;6.13;;;5.10;;
1775;SDS011;885;42.626;23.200;2023-05-07T12:43:13;6.33;;;4.73;;
1775;SDS011;885;42.626;23.200;2023-05-07T12:45:41;5.40;;;5.00;;
1775;SDS011;885;42.626;23.200;2023-05-07T12:48:09;4.83;;;4.43;;
1775;SDS011;885;42.626;23.200;2023-05-07T12:50:36;4.30;;;3.90;;
1775;SDS011;885;42.626;23.200;2023-05-07T12:53:03;4.47;;;4.03;;
1775;SDS011;885;42.626;23.200;2023-05-07T12:55:31;5.97;;;4.40;;
1775;SDS011;885;42.626;23.200;2023-05-07T12:58:00;4.17;;;3.87;;
1775;SDS011;885;42.626;23.200;2023-05-07T13:00:34;5.23;;;4.27;;
1775;SDS011;885;42.626;23.200;2023-05-07T13:03:02;4.60;;;4.20;;
1775;SDS011;885;42.626;23.200;2023-05-07T13:05:29;4.47;;;4.07;;
1775;SDS011;885;42.626;23.200;2023-05-07T13:07:56;4.93;;;4.53;;
1775;SDS011;885;42.626;23.200;2023-05-07T13:10:23;4.60;;;3.90;;
1775;SDS011;885;42.626;23.200;2023-05-07T13:12:51;4.73;;;4.27;;
1775;SDS011;885;42.626;23.200;2023-05-07T13:15:19;6.47;;;4.50;;
1775;SDS011;885;42.626;23.200;2023-05-07T13:17:46;4.33;;;3.93;;
1775;SDS011;885;42.626;23.200;2023-05-07T13:20:13;4.80;;;4.33;;
1775;SDS011;885;42.626;23.200;2023-05-07T13:22:40;6.90;;;4.70;;
1775;SDS011;885;42.626;23.200;2023-05-07T13:25:07;4.90;;;4.50;;
1775;SDS011;885;42.626;23.200;2023-05-07T13:27:35;8.23;;;4.57;;
1775;SDS011;885;42.626;23.200;2023-05-07T13:30:02;4.70;;;4.40;;
1775;SDS011;885;42.626;23.200;2023-05-07T13:32:31;5.27;;;4.23;;
1775;SDS011;885;42.626;23.200;2023-05-07T13:34:58;6.43;;;4.30;;
1775;SDS011;885;42.626;23.200;2023-05-07T13:37:25;4.50;;;4.10;;
1775;SDS011;885;42.626;23.200;2023-05-07T13:39:52;5.87;;;4.37;;
1775;SDS011;885;42.626;23.200;2023-05-07T13:42:18;4.63;;;4.23;;
1775;SDS011;885;42.626;23.200;2023-05-07T13:44:45;5.70;;;4.63;;
1775;SDS011;885;42.626;23.200;2023-05-07T13:47:12;6.33;;;4.10;;
1775;SDS011;885;42.626;23.200;2023-05-07T13:49:41;5.93;;;4.17;;
1775;SDS011;885;42.626;23.200;2023-05-07T13:52:07;4.90;;;4.40;;
1775;SDS011;885;42.626;23.200;2023-05-07T13:54:34;4.70;;;4.20;;
1775;SDS011;885;42.626;23.200;2023-05-07T13:57:01;6.80;;;4.60;;
1775;SDS011;885;42.626;23.200;2023-05-07T13:59:27;5.40;;;4.90;;
1775;SDS011;885;42.626;23.200;2023-05-07T14:01:54;5.90;;;4.30;;
1775;SDS011;885;42.626;23.200;2023-05-07T14:04:21;4.67;;;4.27;;
1775;SDS011;885;42.626;23.200;2023-05-07T14:06:49;4.60;;;4.10;;
1775;SDS011;885;42.626;23.200;2023-05-07T14:09:16;5.43;;;4.77;;
1775;SDS011;885;42.626;23.200;2023-05-07T14:11:43;6.90;;;4.90;;
1775;SDS011;885;42.626;23.200;2023-05-07T14:14:09;8.63;;;3.90;;
1775;SDS011;885;42.626;23.200;2023-05-07T14:16:36;7.20;;;4.20;;
1775;SDS011;885;42.626;23.200;2023-05-07T14:19:03;14.53;;;5.13;;
1775;SDS011;885;42.626;23.200;2023-05-07T14:21:30;6.20;;;4.60;;
1775;SDS011;885;42.626;23.200;2023-05-07T14:23:58;4.60;;;4.10;;
1775;SDS011;885;42.626;23.200;2023-05-07T14:26:26;4.63;;;4.23;;
1775;SDS011;885;42.626;23.200;2023-05-07T14:28:53;4.90;;;4.00;;
1775;SDS011;885;42.626;23.200;2023-05-07T14:31:22;4.60;;;4.20;;
1775;SDS011;885;42.626;23.200;2023-05-07T14:33:49;5.47;;;4.47;;
1775;SDS011;885;42.626;23.200;2023-05-07T14:36:16;4.73;;;4.30;;
1775;SDS011;885;42.626;23.200;2023-05-07T14:38:45;4.20;;;3.70;;
1775;SDS011;885;42.626;23.200;2023-05-07T14:41:13;4.70;;;4.30;;
1775;SDS011;885;42.626;23.200;2023-05-07T14:43:40;7.83;;;3.90;;
1775;SDS011;885;42.626;23.200;2023-05-07T14:46:06;5.47;;;4.37;;
1775;SDS011;885;42.626;23.200;2023-05-07T14:48:33;5.27;;;4.23;;
1775;SDS011;885;42.626;23.200;2023-05-07T14:51:00;6.43;;;3.57;;
1775;SDS011;885;42.626;23.200;2023-05-07T14:53:27;4.93;;;4.43;;
1775;SDS011;885;42.626;23.200;2023-05-07T14:55:53;4.07;;;3.77;;
1775;SDS011;885;42.626;23.200;2023-05-07T14:58:21;5.20;;;4.10;;
1775;SDS011;885;42.626;23.200;2023-05-07T15:00:48;5.20;;;4.40;;
1775;SDS011;885;42.626;23.200;2023-05-07T15:03:15;5.57;;;4.00;;
1775;SDS011;885;42.626;23.200;2023-05-07T15:05:42;5.23;;;3.67;;
1775;SDS011;885;42.626;23.200;2023-05-07T15:08:09;6.10;;;4.33;;
1775;SDS011;885;42.626;23.200;2023-05-07T15:10:36;5.07;;;4.57;;
1775;SDS011;885;42.626;23.200;2023-05-07T15:13:06;5.53;;;4.10;;
1775;SDS011;885;42.626;23.200;2023-05-07T15:15:34;4.43;;;4.03;;
1775;SDS011;885;42.626;23.200;2023-05-07T15:18:01;8.03;;;4.83;;
1775;SDS011;885;42.626;23.200;2023-05-07T15:20:28;4.53;;;4.13;;
1775;SDS011;885;42.626;23.200;2023-05-07T15:22:55;4.53;;;4.17;;
1775;SDS011;885;42.626;23.200;2023-05-07T15:25:23;4.33;;;3.77;;